Time;durP1;ratioP1;P1;durP2;ratioP2;P2;SDS_P1;SDS_P2;PMS_P1;PMS_P2;Temp;Humidity;BMP_temperature;BMP_pressure;BME280_temperature;BME280_humidity;BME280_pressure;Samples;Min_cycle;Max_cycle;Signal;HPM_P1;HPM_P2
2022/11/16 00:01:19;;;;;;;15.70;11.70;;;5.40;99.90;;;;;;5080739;28;20466;-78
2022/11/16 00:03:49;;;;;;;18.40;11.90;;;5.40;99.90;;;;;;5079572;28;20454;-78
2022/11/16 00:06:16;;;;;;;15.70;10.70;;;5.40;99.90;;;;;;5079726;28;20454;-78
2022/11/16 00:09:20;;;;;;;11.93;8.47;;;5.40;99.90;;;;;;5072809;28;20457;-80
2022/11/16 00:11:32;;;;;;;14.60;9.80;;;5.40;99.90;;;;;;5073055;28;20875;-80
2022/11/16 00:13:59;;;;;;;18.30;9.43;;;5.40;99.90;;;;;;5077451;28;20505;-78
2022/11/16 00:16:26;;;;;;;14.83;9.20;;;5.40;99.90;;;;;;5072473;28;20467;-78
2022/11/16 00:18:58;;;;;;;16.50;10.00;;;5.30;99.90;;;;;;5068936;28;21692;-78
2022/11/16 00:21:25;;;;;;;15.70;10.60;;;5.30;99.90;;;;;;5072704;28;20466;-78
2022/11/16 00:23:53;;;;;;;12.73;8.93;;;5.30;99.90;;;;;;5066951;28;20478;-78
2022/11/16 00:26:21;;;;;;;12.70;8.00;;;5.30;99.90;;;;;;5074418;28;20470;-78
2022/11/16 00:28:48;;;;;;;13.77;8.93;;;5.30;99.90;;;;;;5070053;28;20887;-78
2022/11/16 00:31:15;;;;;;;15.60;10.23;;;5.20;99.90;;;;;;5070274;28;20474;-78
2022/11/16 00:33:42;;;;;;;15.17;8.13;;;5.30;99.90;;;;;;5074949;28;20463;-78
2022/11/16 00:36:12;;;;;;;10.83;7.80;;;5.20;99.90;;;;;;5070940;28;20455;-78
2022/11/16 00:38:40;;;;;;;13.63;8.30;;;5.20;99.90;;;;;;5068958;28;20519;-78
2022/11/16 00:41:07;;;;;;;15.00;8.80;;;5.20;99.90;;;;;;5068831;28;20502;-78
2022/11/16 00:43:35;;;;;;;16.20;9.53;;;5.20;99.90;;;;;;5065006;28;20464;-78
2022/11/16 00:46:02;;;;;;;14.53;8.27;;;5.20;99.90;;;;;;5080295;28;20468;-78
2022/11/16 00:48:29;;;;;;;19.60;9.73;;;5.20;99.90;;;;;;5067890;28;20451;-78
2022/11/16 00:50:55;;;;;;;11.23;8.10;;;5.30;99.90;;;;;;5076306;28;20463;-78
2022/11/16 00:53:24;;;;;;;13.43;9.63;;;5.30;99.90;;;;;;5067063;28;21032;-78
2022/11/16 00:55:51;;;;;;;12.60;9.83;;;5.30;99.90;;;;;;5076662;28;21838;-78
2022/11/16 00:58:18;;;;;;;18.67;8.97;;;5.30;99.90;;;;;;5078210;28;20579;-78
2022/11/16 01:00:45;;;;;;;13.83;7.90;;;5.30;99.90;;;;;;5079196;28;20494;-78
2022/11/16 01:03:12;;;;;;;39.70;12.13;;;5.30;99.90;;;;;;5065396;28;20494;-79
2022/11/16 01:05:39;;;;;;;12.93;9.30;;;5.30;99.90;;;;;;5073615;28;20460;-78
2022/11/16 01:08:07;;;;;;;20.57;10.87;;;5.30;99.90;;;;;;5070713;28;20466;-78
2022/11/16 01:10:35;;;;;;;19.43;9.30;;;5.30;99.90;;;;;;5064003;28;20461;-77
2022/11/16 01:13:01;;;;;;;18.20;10.80;;;5.40;99.90;;;;;;5077849;28;20504;-80
2022/11/16 01:15:28;;;;;;;26.33;10.40;;;5.40;99.90;;;;;;5067208;28;20473;-79
2022/11/16 01:17:56;;;;;;;82.07;16.13;;;5.40;99.90;;;;;;5075891;28;21264;-77
2022/11/16 01:20:25;;;;;;;16.90;9.60;;;5.40;99.90;;;;;;5075615;28;20454;-79
2022/11/16 01:22:52;;;;;;;21.30;10.80;;;5.50;99.90;;;;;;5071480;28;20493;-78
2022/11/16 01:25:19;;;;;;;55.60;14.37;;;5.40;99.90;;;;;;5075628;28;20462;-78
2022/11/16 01:27:48;;;;;;;33.50;12.13;;;5.50;99.90;;;;;;5078692;28;20461;-79
2022/11/16 01:30:16;;;;;;;39.67;13.43;;;5.50;99.90;;;;;;5081897;28;20548;-78
2022/11/16 01:32:43;;;;;;;22.33;11.03;;;5.50;99.90;;;;;;5083867;28;20465;-78
2022/11/16 01:35:17;;;;;;;36.83;12.60;;;5.50;99.90;;;;;;5080346;28;20526;-80
2022/11/16 01:37:44;;;;;;;14.50;11.37;;;5.50;99.90;;;;;;5075884;28;20494;-80
2022/11/16 01:40:13;;;;;;;17.77;12.20;;;5.50;99.90;;;;;;5066695;28;20549;-81
2022/11/16 01:42:40;;;;;;;18.63;11.20;;;5.70;99.90;;;;;;5067871;28;20597;-81
2022/11/16 01:45:19;;;;;;;20.33;11.07;;;5.60;99.90;;;;;;5083164;28;20612;-81
2022/11/16 01:47:47;;;;;;;19.17;12.73;;;5.60;99.90;;;;;;5074593;28;20458;-81
2022/11/16 01:50:17;;;;;;;18.13;11.60;;;5.70;99.90;;;;;;5071476;28;20490;-81
2022/11/16 01:52:48;;;;;;;24.83;12.47;;;5.70;99.90;;;;;;5080951;28;20558;-81
2022/11/16 01:55:15;;;;;;;24.63;13.73;;;5.70;99.90;;;;;;5081891;28;20537;-81
2022/11/16 01:57:45;;;;;;;18.83;10.67;;;5.80;99.90;;;;;;5083989;28;20562;-80
2022/11/16 02:00:15;;;;;;;19.53;11.80;;;5.80;99.90;;;;;;5079133;28;20990;-81
2022/11/16 02:02:42;;;;;;;15.90;11.73;;;5.80;99.90;;;;;;5082226;28;20843;-81
2022/11/16 02:05:12;;;;;;;15.47;10.80;;;5.80;99.90;;;;;;5083978;28;20504;-81
2022/11/16 02:11:06;;;;;;;15.20;10.60;;;5.70;99.90;;;;;;5075248;28;21336;-81
2022/11/16 02:13:42;;;;;;;15.17;10.27;;;5.60;99.90;;;;;;5079934;28;20513;-81
2022/11/16 02:16:22;;;;;;;14.73;9.23;;;5.70;99.90;;;;;;5081971;28;20905;-81
2022/11/16 02:18:59;;;;;;;15.93;10.93;;;5.70;99.90;;;;;;5076258;28;20518;-81
2022/11/16 02:21:40;;;;;;;19.60;10.67;;;5.70;99.90;;;;;;5074606;28;20953;-81
2022/11/16 02:24:46;;;;;;;16.90;12.43;;;5.60;99.90;;;;;;5067233;28;20533;-78
2022/11/16 02:27:46;;;;;;;18.80;11.07;;;5.60;99.90;;;;;;5068014;28;20452;-78
2022/11/16 02:30:16;;;;;;;18.70;10.60;;;5.70;99.90;;;;;;5061896;28;20488;-78
2022/11/16 02:32:48;;;;;;;23.07;12.17;;;5.70;99.90;;;;;;5076145;28;20608;-78
2022/11/16 02:35:19;;;;;;;18.27;10.77;;;5.70;99.90;;;;;;5072606;28;21055;-78
2022/11/16 02:37:51;;;;;;;22.87;12.47;;;5.70;99.90;;;;;;5071453;28;20495;-78
2022/11/16 02:40:21;;;;;;;14.57;10.57;;;5.70;99.90;;;;;;5069454;28;20529;-78
2022/11/16 02:42:53;;;;;;;15.57;10.57;;;5.70;99.90;;;;;;5075460;28;20469;-78
2022/11/16 02:45:25;;;;;;;16.70;11.60;;;5.70;99.90;;;;;;5080964;28;20466;-78
2022/11/16 02:47:55;;;;;;;16.00;10.93;;;5.70;99.90;;;;;;5074483;28;20459;-78
2022/11/16 02:50:23;;;;;;;23.23;10.90;;;5.80;99.90;;;;;;5076357;28;21105;-78
2022/11/16 02:52:51;;;;;;;17.07;11.63;;;5.70;99.90;;;;;;5073903;28;20522;-81
2022/11/16 02:55:18;;;;;;;13.40;9.80;;;5.70;99.90;;;;;;5072099;28;20483;-81
2022/11/16 02:57:51;;;;;;;22.03;12.73;;;5.70;99.90;;;;;;5077317;28;21609;-81
2022/11/16 03:00:25;;;;;;;13.90;11.53;;;5.60;99.90;;;;;;5078160;28;20493;-81
2022/11/16 03:03:03;;;;;;;21.70;12.23;;;5.70;99.90;;;;;;5076717;28;20517;-81
2022/11/16 03:05:33;;;;;;;15.73;8.90;;;5.70;99.90;;;;;;5071101;28;20524;-81
2022/11/16 03:08:20;;;;;;;13.60;9.90;;;5.80;99.90;;;;;;5077553;28;20456;-81
2022/11/16 03:13:39;;;;;;;19.43;9.57;;;5.70;99.90;;;;;;5076581;28;20593;-80
2022/11/16 03:16:13;;;;;;;17.70;10.93;;;5.70;99.90;;;;;;5079727;28;20526;-81
2022/11/16 03:18:41;;;;;;;14.97;10.53;;;5.60;99.90;;;;;;5077227;28;21226;-78
2022/11/16 03:21:15;;;;;;;15.23;9.90;;;5.60;99.90;;;;;;5081348;28;20518;-78
2022/11/16 03:23:43;;;;;;;16.27;10.73;;;5.60;99.90;;;;;;5073837;28;20471;-78
2022/11/16 03:26:12;;;;;;;14.80;8.97;;;5.60;99.90;;;;;;5078932;28;20532;-79
2022/11/16 03:28:48;;;;;;;17.30;12.00;;;5.60;99.90;;;;;;5076920;28;20485;-79
2022/11/16 03:31:21;;;;;;;17.83;10.50;;;5.60;99.90;;;;;;5078201;28;20501;-79
2022/11/16 03:33:54;;;;;;;17.70;10.30;;;5.50;99.90;;;;;;5081026;28;20833;-79
2022/11/16 03:36:27;;;;;;;15.90;10.37;;;5.60;99.90;;;;;;5076891;28;20474;-78
2022/11/16 03:38:56;;;;;;;18.00;10.80;;;5.60;99.90;;;;;;5074244;28;20574;-79
2022/11/16 03:41:24;;;;;;;18.50;11.57;;;5.60;99.90;;;;;;5076266;28;20460;-79
2022/11/16 03:43:52;;;;;;;13.80;10.40;;;5.60;99.90;;;;;;5069267;28;20974;-79
2022/11/16 03:46:21;;;;;;;14.53;10.70;;;5.60;99.90;;;;;;5079955;28;20910;-79
2022/11/16 03:48:48;;;;;;;17.77;10.77;;;5.60;99.90;;;;;;5073752;28;20805;-79
2022/11/16 03:51:15;;;;;;;16.30;10.50;;;5.70;99.90;;;;;;5076882;28;21190;-79
2022/11/16 03:53:42;;;;;;;12.00;8.93;;;5.60;99.90;;;;;;5074627;28;20455;-79
2022/11/16 03:56:09;;;;;;;14.37;9.80;;;5.70;99.90;;;;;;5079077;28;20463;-79
2022/11/16 03:58:36;;;;;;;16.70;10.37;;;5.70;99.90;;;;;;5079005;28;20525;-79
2022/11/16 04:01:03;;;;;;;11.70;9.27;;;5.70;99.90;;;;;;5064884;28;20499;-79
2022/11/16 04:03:31;;;;;;;15.60;9.37;;;5.70;99.90;;;;;;5076167;28;20490;-79
2022/11/16 04:25:21;;;;;;;14.87;8.40;;;5.60;99.90;;;;;;5069851;28;20784;-79
2022/11/16 04:38:44;;;;;;;13.70;9.67;;;5.70;99.90;;;;;;5080385;28;20490;-78
2022/11/16 04:42:13;;;;;;;14.33;9.07;;;5.70;99.90;;;;;;5078050;28;20504;-78
2022/11/16 04:43:59;;;;;;;18.93;10.10;;;5.70;99.90;;;;;;5080438;28;20454;-78
2022/11/16 04:49:10;;;;;;;17.57;10.07;;;5.70;99.90;;;;;;5076371;28;20557;-78
2022/11/16 04:51:39;;;;;;;16.07;10.67;;;5.70;99.90;;;;;;5077981;28;20503;-78
2022/11/16 04:54:06;;;;;;;13.67;10.47;;;5.70;99.90;;;;;;5081354;28;20500;-79
2022/11/16 04:56:33;;;;;;;18.37;10.40;;;5.70;99.90;;;;;;5081909;28;20587;-79
2022/11/16 04:59:00;;;;;;;15.20;9.70;;;5.80;99.90;;;;;;5078853;28;20516;-79
2022/11/16 05:04:07;;;;;;;18.63;11.17;;;5.80;99.90;;;;;;5078001;28;20452;-79
2022/11/16 05:06:34;;;;;;;16.00;11.00;;;5.70;99.90;;;;;;5081820;28;20942;-79
2022/11/16 05:09:03;;;;;;;16.33;9.77;;;5.70;99.90;;;;;;5078173;28;20477;-79
2022/11/16 05:11:30;;;;;;;16.13;10.47;;;5.70;99.90;;;;;;5083802;28;20447;-78
2022/11/16 05:13:57;;;;;;;16.37;10.40;;;5.70;99.90;;;;;;5080789;28;20463;-78
2022/11/16 05:16:24;;;;;;;14.50;8.93;;;5.70;99.90;;;;;;5078512;28;21704;-79
2022/11/16 05:21:31;;;;;;;15.03;9.90;;;5.80;99.90;;;;;;5079639;28;20461;-78
2022/11/16 05:26:44;;;;;;;15.23;10.27;;;5.70;99.90;;;;;;5080472;28;20809;-78
2022/11/16 05:29:11;;;;;;;15.53;8.37;;;5.70;99.90;;;;;;5084183;28;20482;-78
2022/11/16 05:31:38;;;;;;;17.73;10.63;;;5.70;99.90;;;;;;5092192;28;20461;-80
2022/11/16 05:34:05;;;;;;;15.43;8.77;;;5.70;99.90;;;;;;5085745;28;20517;-78
2022/11/16 05:36:32;;;;;;;17.23;8.83;;;5.70;99.90;;;;;;5072764;28;20517;-78
2022/11/16 05:38:59;;;;;;;14.27;9.43;;;5.60;99.90;;;;;;5085361;28;21036;-78
2022/11/16 05:41:26;;;;;;;17.70;9.80;;;5.70;99.90;;;;;;5077407;28;20459;-79
2022/11/16 05:43:55;;;;;;;16.30;9.10;;;5.80;99.90;;;;;;5074708;28;20524;-78
2022/11/16 05:46:23;;;;;;;14.90;9.90;;;5.80;99.90;;;;;;5069774;28;20553;-79
2022/11/16 05:48:50;;;;;;;12.77;8.37;;;5.80;99.90;;;;;;5072734;28;20455;-78
2022/11/16 05:51:17;;;;;;;12.70;9.70;;;5.80;99.90;;;;;;5073611;28;20548;-78
2022/11/16 05:53:44;;;;;;;19.10;10.90;;;5.80;99.90;;;;;;5077313;28;20539;-78
2022/11/16 05:56:13;;;;;;;16.17;10.10;;;5.90;99.90;;;;;;5080626;28;20459;-79
2022/11/16 05:58:39;;;;;;;15.23;9.37;;;5.90;99.90;;;;;;5076499;28;20582;-79
2022/11/16 06:01:09;;;;;;;17.07;9.57;;;5.90;99.90;;;;;;5081818;28;20559;-78
2022/11/16 06:03:36;;;;;;;21.70;11.90;;;5.80;99.90;;;;;;5075084;28;20966;-79
2022/11/16 06:06:03;;;;;;;12.20;9.50;;;5.90;99.90;;;;;;5079637;28;20489;-79
2022/11/16 06:08:30;;;;;;;17.00;9.77;;;5.90;99.90;;;;;;5083967;28;21217;-79
2022/11/16 06:11:00;;;;;;;14.60;10.13;;;5.80;99.90;;;;;;5076649;28;20478;-78
2022/11/16 06:13:28;;;;;;;13.13;8.13;;;5.90;99.90;;;;;;5081909;28;20461;-78
2022/11/16 06:15:54;;;;;;;13.80;9.60;;;5.90;99.90;;;;;;5081470;28;20462;-80
2022/11/16 06:18:24;;;;;;;15.00;10.13;;;5.90;99.90;;;;;;5079301;28;20541;-80
2022/11/16 06:20:51;;;;;;;13.77;8.60;;;5.90;99.90;;;;;;5081701;28;20498;-80
2022/11/16 06:23:18;;;;;;;16.90;9.43;;;5.90;99.90;;;;;;5073651;28;20499;-80
2022/11/16 06:25:45;;;;;;;18.63;9.20;;;5.90;99.90;;;;;;5071614;28;20467;-80
2022/11/16 06:28:13;;;;;;;13.33;8.50;;;5.90;99.90;;;;;;5076535;28;20458;-80
2022/11/16 06:30:40;;;;;;;10.83;7.00;;;5.90;99.90;;;;;;5075137;28;21123;-80
2022/11/16 06:33:07;;;;;;;13.13;7.97;;;5.90;99.90;;;;;;5075299;28;20550;-80
2022/11/16 06:35:35;;;;;;;18.07;10.53;;;6.00;99.90;;;;;;5071358;28;21229;-80
2022/11/16 06:38:02;;;;;;;16.10;8.30;;;6.00;99.90;;;;;;5070358;28;21150;-80
2022/11/16 06:40:29;;;;;;;13.70;8.70;;;6.00;99.90;;;;;;5067460;28;20979;-80
2022/11/16 06:42:57;;;;;;;15.17;8.77;;;5.90;99.90;;;;;;5066985;28;20491;-80
2022/11/16 06:45:24;;;;;;;14.23;9.40;;;5.90;99.90;;;;;;5066465;28;21870;-80
2022/11/16 06:47:52;;;;;;;14.67;8.60;;;5.90;99.90;;;;;;5074850;28;20462;-80
2022/11/16 06:50:19;;;;;;;16.37;8.47;;;6.00;99.90;;;;;;5070642;28;20467;-79
2022/11/16 06:52:48;;;;;;;14.07;8.50;;;6.10;99.90;;;;;;5075404;28;20940;-80
2022/11/16 06:55:15;;;;;;;16.77;7.63;;;6.10;99.90;;;;;;5077212;28;20919;-80
2022/11/16 06:57:42;;;;;;;15.07;8.90;;;6.10;99.90;;;;;;5077022;28;20475;-80
2022/11/16 07:00:11;;;;;;;14.83;9.20;;;6.10;99.90;;;;;;5071533;28;20498;-80
2022/11/16 07:02:39;;;;;;;13.60;8.63;;;6.10;99.90;;;;;;5065817;28;20470;-80
2022/11/16 07:05:07;;;;;;;54.07;25.90;;;6.10;99.90;;;;;;5073221;28;20488;-81
2022/11/16 07:07:34;;;;;;;23.70;14.00;;;6.10;99.90;;;;;;5074179;28;20464;-81
2022/11/16 07:10:02;;;;;;;37.23;21.10;;;6.10;99.90;;;;;;5066919;28;21082;-81
2022/11/16 07:12:29;;;;;;;29.50;20.03;;;6.20;99.90;;;;;;5068051;28;20528;-81
2022/11/16 07:14:56;;;;;;;24.40;18.77;;;6.30;99.90;;;;;;5072333;28;20487;-81
2022/11/16 07:17:23;;;;;;;17.13;11.00;;;6.30;99.90;;;;;;5071132;28;20466;-81
2022/11/16 07:19:50;;;;;;;25.30;14.53;;;6.40;99.90;;;;;;5068118;28;20989;-79
2022/11/16 07:22:17;;;;;;;23.00;15.77;;;6.50;99.90;;;;;;5072511;28;20489;-79
2022/11/16 07:24:44;;;;;;;32.47;26.40;;;6.50;99.90;;;;;;5065302;28;20873;-80
2022/11/16 07:27:12;;;;;;;26.20;16.27;;;6.60;99.90;;;;;;5078101;28;20500;-80
2022/11/16 07:29:39;;;;;;;21.70;12.47;;;6.70;99.90;;;;;;5076195;28;20877;-80
2022/11/16 07:32:06;;;;;;;20.60;10.67;;;6.70;99.90;;;;;;5080259;28;20462;-80
2022/11/16 07:34:33;;;;;;;17.97;9.30;;;6.70;99.90;;;;;;5070748;28;20862;-81
2022/11/16 07:37:00;;;;;;;15.97;11.00;;;6.70;99.90;;;;;;5076212;28;20557;-81
2022/11/16 07:39:28;;;;;;;11.23;8.20;;;6.70;99.90;;;;;;5063077;28;21082;-80
2022/11/16 07:41:54;;;;;;;16.57;9.67;;;6.70;99.90;;;;;;5056722;28;21191;-81
2022/11/16 07:44:23;;;;;;;14.27;8.83;;;6.70;99.90;;;;;;5068270;28;20469;-80
2022/11/16 07:46:50;;;;;;;15.73;11.20;;;6.50;99.90;;;;;;5065063;28;20467;-80
2022/11/16 07:49:18;;;;;;;14.20;12.00;;;6.50;99.90;;;;;;5070231;28;20785;-80
2022/11/16 07:51:45;;;;;;;15.10;10.77;;;6.20;99.90;;;;;;5063116;28;20466;-78
2022/11/16 07:54:13;;;;;;;10.67;9.47;;;6.00;99.90;;;;;;5074349;28;20454;-80
2022/11/16 07:56:40;;;;;;;8.07;6.53;;;6.00;99.90;;;;;;5068189;28;20496;-80
2022/11/16 07:59:08;;;;;;;8.73;6.00;;;6.00;99.90;;;;;;5072647;28;20490;-80
2022/11/16 08:01:36;;;;;;;14.63;7.23;;;5.90;99.90;;;;;;5069069;28;20479;-80
2022/11/16 08:04:03;;;;;;;10.60;8.17;;;6.00;99.90;;;;;;5075623;28;20527;-80
2022/11/16 08:06:31;;;;;;;14.97;7.20;;;5.90;99.90;;;;;;5081124;28;20469;-80
2022/11/16 08:08:59;;;;;;;14.73;7.67;;;5.90;99.90;;;;;;5062130;28;20998;-80
2022/11/16 08:11:26;;;;;;;13.47;7.83;;;5.90;99.90;;;;;;5064777;28;20573;-80
2022/11/16 08:13:55;;;;;;;19.87;10.20;;;5.90;99.90;;;;;;5067899;28;20465;-80
2022/11/16 08:16:23;;;;;;;14.07;9.00;;;5.90;99.90;;;;;;5064869;28;20465;-79
2022/11/16 08:18:51;;;;;;;16.20;10.47;;;5.90;99.90;;;;;;5064631;28;21146;-79
2022/11/16 08:21:19;;;;;;;18.70;9.93;;;6.00;99.90;;;;;;5065475;28;20497;-79
2022/11/16 08:23:46;;;;;;;19.30;11.40;;;6.10;99.90;;;;;;5064618;28;20491;-79
2022/11/16 08:26:15;;;;;;;14.80;10.83;;;6.20;99.90;;;;;;5066486;28;20524;-79
2022/11/16 08:28:45;;;;;;;22.20;14.03;;;6.30;99.90;;;;;;5070193;28;20482;-79
2022/11/16 08:31:14;;;;;;;24.43;11.33;;;6.40;99.90;;;;;;5076095;28;20463;-79
2022/11/16 08:33:42;;;;;;;25.70;12.00;;;6.40;99.90;;;;;;5071003;28;20461;-79
2022/11/16 08:36:16;;;;;;;20.47;10.60;;;6.40;99.90;;;;;;5075751;28;20968;-79
2022/11/16 08:38:43;;;;;;;16.27;11.00;;;6.40;99.90;;;;;;5071904;28;20530;-80
2022/11/16 08:41:10;;;;;;;23.13;12.40;;;6.50;99.90;;;;;;5078193;28;20982;-79
2022/11/16 08:43:39;;;;;;;20.53;10.43;;;6.60;99.90;;;;;;5071093;28;20491;-79
2022/11/16 08:46:07;;;;;;;21.63;12.10;;;6.70;99.90;;;;;;5077249;28;20587;-79
2022/11/16 08:48:34;;;;;;;21.67;11.17;;;6.70;99.90;;;;;;5070496;28;20553;-79
2022/11/16 08:51:04;;;;;;;20.87;11.70;;;6.70;99.90;;;;;;5074135;28;20464;-79
2022/11/16 08:53:33;;;;;;;20.50;14.67;;;6.70;99.90;;;;;;5068470;28;20466;-79
2022/11/16 08:56:03;;;;;;;20.13;13.10;;;6.90;99.90;;;;;;5077027;28;20498;-79
2022/11/16 08:58:31;;;;;;;19.10;11.63;;;7.00;99.90;;;;;;5082556;28;20556;-79
2022/11/16 09:00:58;;;;;;;19.57;12.73;;;7.10;99.90;;;;;;5077839;28;20555;-79
2022/11/16 09:03:25;;;;;;;17.80;10.70;;;7.10;99.90;;;;;;5073473;28;21040;-79
2022/11/16 09:05:52;;;;;;;16.60;9.27;;;7.00;99.90;;;;;;5076549;28;20990;-79
2022/11/16 09:08:19;;;;;;;16.77;10.30;;;7.10;99.90;;;;;;5078729;28;20473;-79
2022/11/16 09:10:47;;;;;;;11.67;7.60;;;6.90;99.90;;;;;;5079258;28;20543;-80
2022/11/16 09:13:14;;;;;;;17.73;9.73;;;6.90;99.90;;;;;;5078756;28;20505;-79
2022/11/16 09:15:41;;;;;;;20.43;11.87;;;6.90;99.90;;;;;;5073621;28;20538;-79
2022/11/16 09:18:08;;;;;;;18.30;10.57;;;7.00;99.90;;;;;;5075303;28;20575;-79
2022/11/16 09:20:35;;;;;;;20.17;9.70;;;7.10;99.90;;;;;;5074488;28;20490;-80
2022/11/16 09:23:02;;;;;;;15.83;9.70;;;7.10;99.90;;;;;;5065508;28;20525;-80
2022/11/16 09:25:29;;;;;;;15.93;10.20;;;7.10;99.90;;;;;;5075143;28;20475;-80
2022/11/16 09:27:57;;;;;;;21.73;11.23;;;7.10;99.90;;;;;;5077676;28;20844;-79
2022/11/16 09:30:24;;;;;;;20.67;11.30;;;7.10;99.90;;;;;;5075947;28;20483;-79
2022/11/16 09:32:51;;;;;;;15.73;11.10;;;7.10;99.90;;;;;;5080861;28;20478;-79
2022/11/16 09:35:19;;;;;;;17.60;11.67;;;7.10;99.90;;;;;;5082435;28;20638;-79
2022/11/16 09:37:46;;;;;;;15.60;10.60;;;7.10;99.90;;;;;;5076061;28;20470;-79
2022/11/16 09:40:13;;;;;;;18.07;11.43;;;7.20;99.90;;;;;;5080765;28;20486;-80
2022/11/16 09:42:57;;;;;;;13.73;9.97;;;7.20;99.90;;;;;;5075862;28;20463;-79
2022/11/16 09:45:36;;;;;;;15.70;9.50;;;7.10;99.90;;;;;;5080110;28;20546;-79
2022/11/16 09:48:06;;;;;;;18.50;9.87;;;7.20;99.90;;;;;;5075931;28;20458;-79
2022/11/16 09:50:44;;;;;;;12.27;9.90;;;7.10;99.90;;;;;;5072491;28;20537;-79
2022/11/16 09:53:27;;;;;;;13.10;9.37;;;7.00;99.90;;;;;;5076509;28;20456;-79
2022/11/16 09:55:56;;;;;;;15.10;10.87;;;7.00;99.90;;;;;;5077238;28;20471;-79
2022/11/16 09:58:29;;;;;;;17.93;11.00;;;7.00;99.90;;;;;;5076128;28;20459;-80
2022/11/16 10:01:03;;;;;;;11.77;8.70;;;7.00;99.90;;;;;;5078225;28;20512;-79
2022/11/16 10:03:37;;;;;;;13.70;9.50;;;6.90;99.90;;;;;;5079243;28;20468;-79
2022/11/16 10:06:08;;;;;;;17.60;8.63;;;7.00;99.90;;;;;;5080762;28;20471;-79
2022/11/16 10:08:46;;;;;;;11.37;9.47;;;7.00;99.90;;;;;;5069838;28;20874;-78
2022/11/16 10:11:46;;;;;;;19.43;10.07;;;6.90;99.90;;;;;;5077852;28;20455;-79
2022/11/16 10:14:31;;;;;;;13.43;8.87;;;6.90;99.90;;;;;;5056921;28;20519;-79
2022/11/16 10:17:06;;;;;;;12.53;8.63;;;7.00;99.90;;;;;;5056775;28;20598;-79
2022/11/16 10:19:42;;;;;;;18.03;8.90;;;6.90;99.90;;;;;;5060860;28;20562;-79
2022/11/16 10:22:18;;;;;;;16.37;9.57;;;6.90;99.90;;;;;;5074590;28;21122;-79
2022/11/16 10:24:56;;;;;;;14.57;8.70;;;7.00;99.90;;;;;;5078846;28;20468;-79
2022/11/16 10:27:43;;;;;;;13.43;9.63;;;7.00;99.90;;;;;;5082714;28;20913;-79
2022/11/16 10:30:12;;;;;;;18.43;11.63;;;7.10;99.90;;;;;;5077062;28;20557;-79
2022/11/16 10:32:47;;;;;;;21.13;11.90;;;7.10;99.90;;;;;;5072459;28;21016;-79
2022/11/16 10:35:19;;;;;;;19.17;12.00;;;7.10;99.90;;;;;;5076284;28;20462;-79
2022/11/16 10:37:49;;;;;;;16.13;10.30;;;7.10;99.90;;;;;;5064835;28;20561;-79
2022/11/16 10:40:23;;;;;;;15.10;9.67;;;7.20;99.90;;;;;;5066357;28;20522;-79
2022/11/16 10:42:58;;;;;;;15.63;10.40;;;7.30;99.90;;;;;;5075365;28;20548;-79
2022/11/16 10:45:32;;;;;;;16.73;10.70;;;7.30;99.90;;;;;;5077372;28;20455;-79
2022/11/16 10:48:11;;;;;;;14.10;9.00;;;7.30;99.90;;;;;;5073623;28;20519;-79
2022/11/16 10:50:41;;;;;;;14.87;10.10;;;7.30;99.90;;;;;;5077611;28;20519;-79
2022/11/16 10:53:13;;;;;;;17.83;9.63;;;7.40;99.90;;;;;;5079063;28;20558;-79
2022/11/16 10:55:40;;;;;;;19.80;8.47;;;7.40;99.90;;;;;;5074776;28;20542;-79
2022/11/16 10:58:07;;;;;;;23.40;10.60;;;7.40;99.90;;;;;;5067260;28;20514;-79
2022/11/16 11:00:41;;;;;;;17.00;9.87;;;7.40;99.90;;;;;;5075498;28;20513;-79
2022/11/16 11:03:10;;;;;;;12.07;8.77;;;7.30;99.90;;;;;;5074760;28;20564;-79
2022/11/16 11:05:47;;;;;;;14.60;8.50;;;7.40;99.90;;;;;;5076246;28;20469;-79
2022/11/16 11:08:25;;;;;;;13.83;8.90;;;7.40;99.90;;;;;;5078252;28;20474;-79
2022/11/16 11:11:00;;;;;;;12.63;8.50;;;7.40;99.90;;;;;;5065523;28;20909;-78
2022/11/16 11:13:27;;;;;;;15.03;9.57;;;7.40;99.90;;;;;;5065481;28;20906;-78
2022/11/16 11:16:15;;;;;;;11.17;8.83;;;7.50;99.90;;;;;;5069747;28;20499;-78
2022/11/16 11:18:43;;;;;;;18.20;10.60;;;7.40;99.90;;;;;;5075330;28;20569;-79
2022/11/16 11:21:17;;;;;;;22.57;10.47;;;7.50;99.90;;;;;;5080152;28;20973;-78
2022/11/16 11:23:47;;;;;;;14.50;10.23;;;7.50;99.90;;;;;;5067486;28;20458;-78
2022/11/16 11:26:34;;;;;;;14.43;9.17;;;7.40;99.90;;;;;;5073070;28;20930;-78
2022/11/16 11:29:03;;;;;;;14.53;9.63;;;7.40;99.90;;;;;;5076334;28;20844;-78
2022/11/16 11:31:35;;;;;;;11.00;8.30;;;7.50;99.90;;;;;;5078785;28;20455;-78
2022/11/16 11:34:15;;;;;;;13.97;10.30;;;7.50;99.90;;;;;;5073302;28;20474;-77
2022/11/16 11:36:46;;;;;;;12.93;8.00;;;7.60;99.90;;;;;;5091147;28;20455;-78
2022/11/16 11:39:29;;;;;;;11.40;8.07;;;7.70;99.90;;;;;;5076075;28;20570;-78
2022/11/16 11:42:06;;;;;;;13.30;9.53;;;7.80;99.90;;;;;;5071867;28;20451;-79
2022/11/16 11:44:42;;;;;;;17.90;10.20;;;7.70;99.90;;;;;;5074727;28;20482;-79
2022/11/16 11:47:30;;;;;;;16.13;11.43;;;7.90;99.90;;;;;;5078241;28;20922;-79
2022/11/16 11:50:06;;;;;;;13.70;11.00;;;7.90;99.90;;;;;;5066546;28;20962;-79
2022/11/16 11:52:38;;;;;;;14.10;10.37;;;8.00;99.90;;;;;;5071984;28;20845;-79
2022/11/16 11:55:08;;;;;;;16.20;10.57;;;8.20;99.90;;;;;;5080025;28;20546;-79
2022/11/16 11:57:39;;;;;;;19.70;10.97;;;8.20;99.90;;;;;;5080757;28;20608;-79
2022/11/16 12:00:08;;;;;;;13.23;10.13;;;8.30;99.90;;;;;;5073870;28;20570;-79
2022/11/16 12:02:52;;;;;;;16.30;9.73;;;8.20;99.90;;;;;;5072816;28;20464;-79
2022/11/16 12:05:35;;;;;;;16.33;11.63;;;8.20;99.90;;;;;;5076468;28;20491;-79
2022/11/16 12:08:27;;;;;;;14.30;8.70;;;8.20;99.90;;;;;;5065676;28;20603;-79
2022/11/16 12:11:01;;;;;;;10.17;8.67;;;8.00;99.90;;;;;;5072731;28;20544;-78
2022/11/16 12:13:54;;;;;;;12.77;8.73;;;8.00;99.90;;;;;;5076039;28;20457;-78
2022/11/16 12:16:30;;;;;;;12.00;8.33;;;8.10;99.90;;;;;;5075794;28;20479;-78
2022/11/16 12:19:25;;;;;;;10.00;7.73;;;8.00;99.90;;;;;;5078742;28;20525;-78
2022/11/16 12:22:03;;;;;;;12.50;8.80;;;8.00;99.90;;;;;;5071598;28;20923;-78
2022/11/16 12:24:43;;;;;;;13.93;9.17;;;8.10;99.90;;;;;;5067345;28;20521;-78
2022/11/16 12:27:25;;;;;;;13.57;9.20;;;8.00;99.90;;;;;;5073081;28;20997;-78
2022/11/16 12:30:01;;;;;;;11.10;9.10;;;8.20;99.90;;;;;;5064248;28;20479;-79
2022/11/16 12:33:00;;;;;;;12.47;8.90;;;8.20;99.90;;;;;;5069476;28;20466;-79
2022/11/16 12:35:45;;;;;;;11.40;8.60;;;8.30;99.90;;;;;;5058055;28;20475;-79
2022/11/16 12:38:26;;;;;;;12.53;9.10;;;8.30;99.90;;;;;;5077698;28;20524;-77
2022/11/16 12:41:15;;;;;;;10.27;8.10;;;8.30;99.90;;;;;;5073668;28;20580;-77
2022/11/16 12:43:50;;;;;;;11.83;9.37;;;8.30;99.90;;;;;;5059404;28;20483;-77
2022/11/16 12:46:25;;;;;;;9.10;7.40;;;8.30;99.90;;;;;;5066327;28;20531;-76
2022/11/16 12:49:26;;;;;;;14.00;9.47;;;8.30;99.90;;;;;;5069326;28;20466;-76
2022/11/16 12:52:05;;;;;;;11.00;7.90;;;8.30;99.90;;;;;;5070760;28;20568;-77
2022/11/16 12:55:05;;;;;;;10.20;8.47;;;8.30;99.90;;;;;;5081507;28;20482;-76
2022/11/16 12:57:42;;;;;;;10.47;8.00;;;8.20;99.90;;;;;;5071539;28;20460;-76
2022/11/16 13:00:11;;;;;;;9.37;7.13;;;8.10;99.90;;;;;;5069266;28;20490;-79
2022/11/16 13:02:57;;;;;;;9.00;7.00;;;8.00;99.90;;;;;;5076599;28;21004;-79
2022/11/16 13:05:29;;;;;;;8.70;7.33;;;7.90;99.90;;;;;;5075123;28;20532;-77
2022/11/16 13:08:02;;;;;;;11.30;8.00;;;7.90;99.90;;;;;;5084321;28;20474;-77
2022/11/16 13:10:35;;;;;;;11.77;7.80;;;7.80;99.90;;;;;;5075132;28;20897;-79
2022/11/16 13:13:09;;;;;;;11.40;7.93;;;7.80;99.90;;;;;;5063694;28;20523;-79
2022/11/16 13:15:40;;;;;;;10.20;7.80;;;7.80;99.90;;;;;;5076764;28;21163;-80
2022/11/16 13:18:13;;;;;;;10.30;7.37;;;7.90;99.90;;;;;;5077092;28;20463;-76
2022/11/16 13:20:45;;;;;;;10.40;8.47;;;7.90;99.90;;;;;;5078858;28;20490;-77
2022/11/16 13:23:19;;;;;;;10.77;6.90;;;7.80;99.90;;;;;;5072869;28;20569;-76
2022/11/16 13:25:52;;;;;;;11.03;9.37;;;7.70;99.90;;;;;;5075852;28;20462;-78
2022/11/16 13:28:26;;;;;;;9.20;7.10;;;7.70;99.90;;;;;;5075027;28;20466;-77
2022/11/16 13:31:01;;;;;;;10.30;6.77;;;7.70;99.90;;;;;;5072320;28;20467;-80
2022/11/16 13:33:37;;;;;;;11.03;8.70;;;7.60;99.90;;;;;;5079757;28;20473;-78
2022/11/16 13:36:45;;;;;;;9.73;8.73;;;7.50;99.90;;;;;;5084135;28;20603;-78
2022/11/16 13:39:14;;;;;;;11.50;7.93;;;7.50;99.90;;;;;;5039809;28;20466;-79
2022/11/16 13:41:44;;;;;;;10.67;9.30;;;7.40;99.90;;;;;;5068429;28;20518;-79
2022/11/16 13:44:26;;;;;;;9.73;7.17;;;7.40;99.90;;;;;;5085667;28;20790;-79
2022/11/16 13:46:58;;;;;;;10.63;7.70;;;7.40;99.90;;;;;;5083384;28;20551;-79
2022/11/16 13:49:30;;;;;;;11.10;8.73;;;7.40;99.90;;;;;;5087478;28;20477;-79
2022/11/16 13:51:59;;;;;;;13.57;8.47;;;7.30;99.90;;;;;;5067588;28;20465;-79